F/V Mare Liberum — FVHW — position and weather

sailwx.info

Track history (hours):
 
Tides and Currents Weather Stations Pressure Air Temp Water Temp Dewpoint Dewpoint Depression Visibility Wind Speed Wind Dir Waves Ship Positions

F/V Mare Liberum

Last reported at 2014-Oct-25 09:06 UTC. Time now 2014-Oct-25 13:24 UTC.
Position N 46°18' W 002°07'.

Length 21 m.

Type: Fishing. MMSI: 227426000.

Date/timePositionNaut miles runAvg speedWind from/ knotsBaromVisibWave heightAir tempDewpointWater temp
2014-Oct-25 09:06N 46°18' W 002°07'0 0.6
2014-Oct-25 08:33N 46°18' W 002°07'5 1.1
2014-Oct-25 04:05N 46°17' W 002°00'2 2.8
2014-Oct-25 03:21N 46°15' W 001°59'1 1.6
2014-Oct-25 02:26N 46°16' W 002°00'1 0.2
2014-Oct-24 21:16N 46°15' W 001°60'2 0.2
2014-Oct-24 08:30N 46°17' W 001°59'6 4.5
2014-Oct-24 07:15N 46°18' W 002°07'0 0.0
2014-Oct-23 16:06N 46°18' W 002°07'0 0.0
2014-Oct-23 15:33N 46°18' W 002°07'0 0.0
2014-Oct-23 14:33N 46°18' W 002°07'0 0.1
2014-Oct-23 10:22N 46°18' W 002°07'1 0.4
2014-Oct-23 06:26N 46°19' W 002°08'3 2.2
2014-Oct-23 05:12N 46°17' W 002°06'1 0.4
2014-Oct-23 01:16N 46°18' W 002°07'2 0.1
2014-Oct-22 08:33N 46°20' W 002°08'9 9.0
2014-Oct-22 07:33N 46°29' W 002°10'2 0.1
2014-Oct-20 10:20N 46°30' W 002°07'7 9.5
2014-Oct-20 09:33N 46°23' W 002°02'7 2.4
2014-Oct-20 06:31N 46°16' W 001°59'1 0.9
2014-Oct-20 05:25N 46°15' W 001°59'0 0.3
2014-Oct-20 04:10N 46°15' W 001°59'1 1.9
2014-Oct-20 03:29N 46°16' W 002°00'1 0.2
2014-Oct-19 22:32N 46°15' W 002°01'0 0.1
2014-Oct-19 21:33N 46°15' W 002°01'0 0.0
2014-Oct-19 19:10N 46°15' W 002°01'0 0.0
2014-Oct-19 18:31N 46°15' W 002°01'0 0.0
2014-Oct-19 17:32N 46°15' W 002°01'0 0.0
2014-Oct-19 16:33N 46°15' W 002°01'0 0.1
2014-Oct-19 12:31N 46°15' W 002°01'1 0.7
2014-Oct-19 11:33N 46°15' W 001°60'1 1.0
2014-Oct-19 10:20N 46°16' W 001°59'2 2.4
2014-Oct-19 09:32N 46°15' W 001°58'2 1.8
2014-Oct-19 08:31N 46°16' W 001°60'1 0.5
2014-Oct-19 07:32N 46°16' W 001°59'0 0.4
2014-Oct-19 06:33N 46°16' W 001°59'0 0.2
2014-Oct-19 05:23N 46°16' W 001°59'1 1.1
2014-Oct-19 04:33N 46°15' W 001°58'2 0.6
2014-Oct-19 00:32N 46°15' W 002°02'0 0.1
2014-Oct-18 22:20N 46°15' W 002°02'0 0.0
2014-Oct-18 21:30N 46°15' W 002°02'0 0.0
2014-Oct-18 20:29N 46°15' W 002°02'0 0.0
2014-Oct-18 19:06N 46°15' W 002°02'1 0.1
2014-Oct-18 11:11N 46°16' W 002°01'1 0.8
2014-Oct-18 10:22N 46°16' W 002°00'1 0.9
2014-Oct-18 09:24N 46°16' W 001°59'1 1.4
2014-Oct-18 08:25N 46°16' W 002°01'0 0.6
2014-Oct-18 07:33N 46°16' W 002°01'1 0.8
2014-Oct-18 06:22N 46°15' W 002°01'1 0.5
2014-Oct-18 04:08N 46°16' W 002°03'1 2.4
2014-Oct-18 03:32N 46°15' W 002°02'1 1.3
2014-Oct-18 02:28N 46°16' W 002°03'1 1.3
2014-Oct-18 01:22N 46°14' W 002°02'1 0.1
2014-Oct-17 17:23N 46°14' W 002°02'2 1.6
2014-Oct-17 16:20N 46°14' W 001°59'2 2.0
2014-Oct-17 15:29N 46°16' W 002°00'1 1.4
2014-Oct-17 14:30N 46°15' W 002°01'2 0.0
2014-Oct-16 04:10N 46°16' W 002°02'  
Track history (hours):
 
Tides and Currents Weather Stations Pressure Air Temp Water Temp Dewpoint Dewpoint Depression Visibility Wind Speed Wind Dir Waves Ship Positions

F/V Mare Liberum

Last reported at 2014-Oct-25 09:06 UTC. Time now 2014-Oct-25 13:24 UTC.
Position N 46°18' W 002°07'.

Length 21 m.

Type: Fishing. MMSI: 227426000.

Date/timePositionNaut miles runAvg speedWind from/ knotsBaromVisibWave heightAir tempDewpointWater temp
2014-Oct-25 09:06N 46°18' W 002°07'0 0.6
2014-Oct-25 08:33N 46°18' W 002°07'5 1.1
2014-Oct-25 04:05N 46°17' W 002°00'2 2.8
2014-Oct-25 03:21N 46°15' W 001°59'1 1.6
2014-Oct-25 02:26N 46°16' W 002°00'1 0.2
2014-Oct-24 21:16N 46°15' W 001°60'2 0.2
2014-Oct-24 08:30N 46°17' W 001°59'6 4.5
2014-Oct-24 07:15N 46°18' W 002°07'0 0.0
2014-Oct-23 16:06N 46°18' W 002°07'0 0.0
2014-Oct-23 15:33N 46°18' W 002°07'0 0.0
2014-Oct-23 14:33N 46°18' W 002°07'0 0.1
2014-Oct-23 10:22N 46°18' W 002°07'1 0.4
2014-Oct-23 06:26N 46°19' W 002°08'3 2.2
2014-Oct-23 05:12N 46°17' W 002°06'1 0.4
2014-Oct-23 01:16N 46°18' W 002°07'2 0.1
2014-Oct-22 08:33N 46°20' W 002°08'9 9.0
2014-Oct-22 07:33N 46°29' W 002°10'2 0.1
2014-Oct-20 10:20N 46°30' W 002°07'7 9.5
2014-Oct-20 09:33N 46°23' W 002°02'7 2.4
2014-Oct-20 06:31N 46°16' W 001°59'1 0.9
2014-Oct-20 05:25N 46°15' W 001°59'0 0.3
2014-Oct-20 04:10N 46°15' W 001°59'1 1.9
2014-Oct-20 03:29N 46°16' W 002°00'1 0.2
2014-Oct-19 22:32N 46°15' W 002°01'0 0.1
2014-Oct-19 21:33N 46°15' W 002°01'0 0.0
2014-Oct-19 19:10N 46°15' W 002°01'0 0.0
2014-Oct-19 18:31N 46°15' W 002°01'0 0.0
2014-Oct-19 17:32N 46°15' W 002°01'0 0.0
2014-Oct-19 16:33N 46°15' W 002°01'0 0.1
2014-Oct-19 12:31N 46°15' W 002°01'1 0.7
2014-Oct-19 11:33N 46°15' W 001°60'1 1.0
2014-Oct-19 10:20N 46°16' W 001°59'2 2.4
2014-Oct-19 09:32N 46°15' W 001°58'2 1.8
2014-Oct-19 08:31N 46°16' W 001°60'1 0.5
2014-Oct-19 07:32N 46°16' W 001°59'0 0.4
2014-Oct-19 06:33N 46°16' W 001°59'0 0.2
2014-Oct-19 05:23N 46°16' W 001°59'1 1.1
2014-Oct-19 04:33N 46°15' W 001°58'2 0.6
2014-Oct-19 00:32N 46°15' W 002°02'0 0.1
2014-Oct-18 22:20N 46°15' W 002°02'0 0.0
2014-Oct-18 21:30N 46°15' W 002°02'0 0.0
2014-Oct-18 20:29N 46°15' W 002°02'0 0.0
2014-Oct-18 19:06N 46°15' W 002°02'1 0.1
2014-Oct-18 11:11N 46°16' W 002°01'1 0.8
2014-Oct-18 10:22N 46°16' W 002°00'1 0.9
2014-Oct-18 09:24N 46°16' W 001°59'1 1.4
2014-Oct-18 08:25N 46°16' W 002°01'0 0.6
2014-Oct-18 07:33N 46°16' W 002°01'1 0.8
2014-Oct-18 06:22N 46°15' W 002°01'1 0.5
2014-Oct-18 04:08N 46°16' W 002°03'1 2.4
2014-Oct-18 03:32N 46°15' W 002°02'1 1.3
2014-Oct-18 02:28N 46°16' W 002°03'1 1.3
2014-Oct-18 01:22N 46°14' W 002°02'1 0.1
2014-Oct-17 17:23N 46°14' W 002°02'2 1.6
2014-Oct-17 16:20N 46°14' W 001°59'2 2.0
2014-Oct-17 15:29N 46°16' W 002°00'1 1.4
2014-Oct-17 14:30N 46°15' W 002°01'2 0.0
2014-Oct-16 04:10N 46°16' W 002°02'  

Dump ship's entire track history